Time;durP1;ratioP1;P1;durP2;ratioP2;P2;SDS_P1;SDS_P2;PMS_P1;PMS_P2;Temp;Humidity;BMP_temperature;BMP_pressure;BME280_temperature;BME280_humidity;BME280_pressure;Samples;Min_cycle;Max_cycle;Signal;HPM_P1;HPM_P2
2023/06/10 10:31:12;;;;;;;13.00;5.70;;;;;;;22.91;61.81;98979.02;109135;1256;97238;-92
2023/06/10 10:34:09;;;;;;;9.10;4.80;;;;;;;22.85;61.66;98978.35;108498;1242;105857;-92
2023/06/10 10:36:37;;;;;;;14.50;5.60;;;;;;;22.89;61.12;98975.98;108687;1244;97922;-91
2023/06/10 10:39:05;;;;;;;11.30;5.60;;;;;;;22.88;61.58;98973.25;108703;1246;97869;-93
2023/06/10 10:41:33;;;;;;;8.50;5.10;;;;;;;22.89;61.79;98970.64;108726;1242;97933;-95
2023/06/10 10:44:21;;;;;;;10.80;4.50;;;;;;;22.96;61.86;98981.89;109487;1244;97841;-92
2023/06/10 10:46:50;;;;;;;12.50;5.60;;;;;;;22.86;61.55;98975.92;108550;1248;107683;-91
2023/06/10 10:49:22;;;;;;;9.20;5.20;;;;;;;22.85;61.83;98977.38;108826;1246;97828;-93
2023/06/10 10:51:56;;;;;;;23.00;15.30;;;;;;;22.87;61.72;98977.95;109043;1240;97837;-91
2023/06/10 10:54:35;;;;;;;9.30;5.70;;;;;;;22.75;61.69;98973.27;108900;1243;111185;-92
2023/06/10 10:57:08;;;;;;;10.00;5.20;;;;;;;22.71;61.63;98969.48;108830;1241;96451;-92
2023/06/10 10:59:45;;;;;;;;;;;;;;;22.81;61.70;98973.70;108832;1243;107615;-92
2023/06/10 11:02:48;;;;;;;9.80;5.30;;;;;;;22.86;61.82;98974.11;108514;1240;97948;-93
2023/06/10 11:05:17;;;;;;;;;;;;;;;22.94;61.82;98970.20;108453;1241;99161;-92
2023/06/10 11:07:57;;;;;;;15.60;5.50;;;;;;;23.02;61.96;98971.64;108628;1243;110715;-91
2023/06/10 11:15:20;;;;;;;10.70;5.20;;;;;;;23.03;61.68;98969.60;108449;1247;108021;-93
2023/06/10 11:18:12;;;;;;;9.00;5.10;;;;;;;23.14;61.63;98965.27;108961;1240;98031;-92
2023/06/10 11:20:50;;;;;;;10.40;5.50;;;;;;;23.22;61.81;98968.36;109386;1240;97824;-93
2023/06/10 11:23:27;;;;;;;8.50;5.40;;;;;;;23.26;61.79;98965.44;109313;1240;111168;-94
2023/06/10 11:26:31;;;;;;;13.90;6.10;;;;;;;23.37;61.58;98963.19;109523;1238;97754;-92
2023/06/10 11:28:59;;;;;;;10.60;5.60;;;;;;;23.44;61.54;98963.41;109218;1239;106952;-91
2023/06/10 11:31:26;;;;;;;10.00;5.10;;;;;;;23.50;61.65;98963.27;109202;1235;97927;-92
2023/06/10 11:33:59;;;;;;;11.90;5.10;;;;;;;23.50;61.01;98962.18;109408;1240;98425;-92
2023/06/10 11:36:27;;;;;;;8.40;4.90;;;;;;;23.37;61.14;98965.19;109256;1240;110616;-92
2023/06/10 11:39:03;;;;;;;16.60;8.10;;;;;;;23.32;61.04;98964.33;109319;1239;97993;-92
2023/06/10 11:41:31;;;;;;;11.30;5.60;;;;;;;23.31;61.11;98962.89;109164;1240;107679;-92
2023/06/10 11:44:21;;;;;;;16.20;6.00;;;;;;;23.27;61.10;98966.02;109291;1235;98083;-94
2023/06/10 11:48:04;;;;;;;10.90;5.40;;;;;;;23.32;61.24;98966.29;111222;1235;96638;-95
2023/06/10 11:50:32;;;;;;;11.70;5.50;;;;;;;23.40;61.23;98958.70;109603;1243;111004;-92
2023/06/10 11:53:00;;;;;;;8.70;5.40;;;;;;;23.43;61.19;98963.30;110206;1238;96450;-91
2023/06/10 11:55:46;;;;;;;11.30;5.40;;;;;;;23.40;61.04;98964.63;109674;1235;107629;-93
2023/06/10 11:58:40;;;;;;;8.30;5.10;;;;;;;23.31;60.78;98967.89;109527;1239;97937;-92
2023/06/10 12:01:07;;;;;;;11.80;5.50;;;;;;;23.07;60.75;98962.08;109667;1242;97914;-94
2023/06/10 12:03:38;;;;;;;9.20;5.50;;;;;;;22.90;60.70;98964.32;109068;1242;97777;-92
2023/06/10 12:06:06;;;;;;;12.20;5.70;;;;;;;22.79;60.56;98962.49;108793;1237;98844;-92
2023/06/10 12:08:42;;;;;;;20.40;6.50;;;;;;;22.74;60.88;98963.48;109031;1241;107525;-92
2023/06/10 12:11:11;;;;;;;18.10;5.90;;;;;;;22.74;60.70;98966.50;109543;1238;97702;-94
2023/06/10 12:17:02;;;;;;;161.40;27.70;;;;;;;22.48;60.67;98966.65;108929;1245;112458;-93
2023/06/10 12:19:30;;;;;;;20.10;5.80;;;;;;;22.51;60.62;98963.40;108712;1244;98023;-92
2023/06/10 12:21:56;;;;;;;9.50;5.40;;;;;;;22.61;60.60;98962.77;108653;1241;97873;-92
2023/06/10 12:24:23;;;;;;;10.80;5.60;;;;;;;22.70;60.61;98959.48;108773;1242;96237;-94
2023/06/10 12:26:55;;;;;;;12.50;6.20;;;;;;;22.77;60.73;98958.20;108695;1246;97927;-93
2023/06/10 12:29:24;;;;;;;18.30;8.30;;;;;;;22.90;60.83;98957.48;108475;1246;111301;-94
2023/06/10 12:31:53;;;;;;;13.00;6.30;;;;;;;23.07;60.62;98960.49;109349;1242;98061;-92
2023/06/10 12:37:19;;;;;;;10.50;5.20;;;;;;;23.18;60.69;98954.16;108252;1245;97940;-92
2023/06/10 12:39:53;;;;;;;12.50;5.70;;;;;;;23.24;60.65;98954.89;108371;1246;98077;-94
2023/06/10 12:42:23;;;;;;;9.20;4.90;;;;;;;23.28;60.46;98950.72;108409;1245;110962;-92
2023/06/10 12:44:54;;;;;;;9.10;5.80;;;;;;;23.21;60.37;98952.73;108365;1246;97929;-92
2023/06/10 12:47:59;;;;;;;10.00;5.60;;;;;;;23.08;60.29;98945.61;108391;1244;107377;-92
2023/06/10 12:50:26;;;;;;;10.30;5.80;;;;;;;23.07;60.32;98946.69;108796;1240;97711;-93
2023/06/10 12:52:53;;;;;;;10.60;5.50;;;;;;;22.98;60.45;98942.20;108885;1242;97807;-93
2023/06/10 12:55:20;;;;;;;9.30;5.80;;;;;;;23.00;60.36;98942.83;108912;1236;97920;-93
2023/06/10 12:57:49;;;;;;;10.30;5.70;;;;;;;22.95;60.27;98939.20;108931;1244;97976;-94
2023/06/10 13:00:17;;;;;;;10.40;5.10;;;;;;;22.90;60.08;98943.95;108804;1243;98154;-93
2023/06/10 13:02:44;;;;;;;11.30;5.80;;;;;;;22.84;60.03;98942.52;108951;1234;97911;-93
2023/06/10 13:05:11;;;;;;;9.40;5.20;;;;;;;22.80;60.15;98938.03;109039;1240;97898;-94
2023/06/10 13:07:44;;;;;;;7.70;4.80;;;;;;;22.78;60.10;98938.35;108894;1247;110558;-92
2023/06/10 13:10:13;;;;;;;11.00;5.60;;;;;;;22.67;60.18;98938.48;109122;1240;97920;-91
2023/06/10 13:12:40;;;;;;;11.10;5.60;;;;;;;22.67;60.29;98943.45;108797;1244;107414;-93
2023/06/10 13:15:45;;;;;;;13.50;5.50;;;;;;;22.57;60.09;98948.37;108645;1243;97983;-92
2023/06/10 13:18:12;;;;;;;10.60;5.60;;;;;;;22.41;60.01;98955.59;108347;1244;98375;-91
2023/06/10 13:20:39;;;;;;;9.20;5.60;;;;;;;22.20;60.10;98954.38;108553;1241;98113;-92
2023/06/10 13:23:06;;;;;;;11.00;6.10;;;;;;;22.09;60.02;98949.41;108636;1241;98119;-91
2023/06/10 13:25:33;;;;;;;11.80;6.20;;;;;;;22.07;60.43;98947.18;108487;1248;98019;-94
2023/06/10 13:28:01;;;;;;;11.00;6.20;;;;;;;22.09;60.36;98950.74;108289;1244;99337;-92
2023/06/10 13:30:27;;;;;;;12.70;5.60;;;;;;;22.16;60.49;98952.00;108633;1244;97960;-93
2023/06/10 13:32:54;;;;;;;12.50;6.60;;;;;;;22.23;60.41;98951.15;108475;1235;99061;-91
2023/06/10 13:35:22;;;;;;;28.30;16.00;;;;;;;22.25;60.40;98954.27;109160;1241;98660;-91
2023/06/10 13:37:48;;;;;;;19.80;10.60;;;;;;;22.28;60.46;98961.02;109048;1235;97821;-93
2023/06/10 13:40:15;;;;;;;24.60;11.90;;;;;;;22.22;60.39;98953.10;108969;1235;98001;-93
2023/06/10 13:42:42;;;;;;;33.30;19.60;;;;;;;22.23;60.49;98955.98;108820;1241;98340;-93
2023/06/10 13:45:09;;;;;;;25.10;13.40;;;;;;;22.28;60.69;98957.97;108830;1235;98008;-91
2023/06/10 13:47:37;;;;;;;22.80;10.90;;;;;;;22.34;60.67;98957.70;108971;1235;97921;-92
2023/06/10 13:50:05;;;;;;;20.50;8.70;;;;;;;22.38;60.45;98957.05;108863;1235;97885;-91
2023/06/10 13:52:35;;;;;;;18.30;8.70;;;;;;;22.43;60.71;98957.54;108812;1240;97831;-91
2023/06/10 13:55:02;;;;;;;11.70;6.00;;;;;;;22.49;60.70;98953.42;109027;1238;111071;-92
2023/06/10 13:57:29;;;;;;;9.90;5.70;;;;;;;22.50;60.61;98957.02;108989;1235;97910;-92
2023/06/10 13:59:56;;;;;;;12.10;5.40;;;;;;;22.42;60.66;98956.90;108805;1249;99287;-90
2023/06/10 14:02:23;;;;;;;11.30;5.60;;;;;;;22.31;60.59;98956.39;108821;1234;98010;-92
2023/06/10 14:04:51;;;;;;;15.20;6.00;;;;;;;22.21;60.60;98954.77;108821;1240;97850;-92
2023/06/10 14:07:19;;;;;;;19.90;11.10;;;;;;;22.16;60.52;98957.77;108772;1241;111395;-92
2023/06/10 14:13:06;;;;;;;15.40;5.90;;;;;;;22.08;60.54;98949.70;109639;1237;107584;-91
2023/06/10 14:16:06;;;;;;;;;;;;;;;;;;;;;
2023/06/10 14:19:17;;;;;;;14.20;6.40;;;;;;;21.99;60.39;98951.17;111497;1232;95357;-91
2023/06/10 14:22:07;;;;;;;16.20;7.50;;;;;;;21.99;60.44;98953.34;111514;1232;110859;-90
2023/06/10 14:24:36;;;;;;;15.50;6.60;;;;;;;22.00;60.67;98955.23;111165;1232;97821;-93
2023/06/10 14:27:03;;;;;;;16.90;6.90;;;;;;;22.02;60.63;98955.83;109293;1232;108132;-91
2023/06/10 14:29:31;;;;;;;12.10;5.70;;;;;;;22.02;60.51;98956.94;108932;1241;97820;-92
2023/06/10 14:31:58;;;;;;;19.70;10.80;;;;;;;21.98;60.28;98957.83;109210;1237;97929;-91
2023/06/10 14:34:29;;;;;;;38.90;27.30;;;;;;;21.95;60.48;98955.08;109204;1236;97899;-92
2023/06/10 14:36:56;;;;;;;15.70;7.00;;;;;;;22.01;60.56;98957.83;109131;1240;98643;-92
2023/06/10 14:39:23;;;;;;;11.60;6.40;;;;;;;22.06;60.45;98959.66;109567;1232;98117;-92
2023/06/10 14:41:52;;;;;;;11.60;5.90;;;;;;;22.08;60.36;98959.27;109209;1232;97976;-92
2023/06/10 14:44:19;;;;;;;12.60;5.90;;;;;;;22.10;60.57;98960.26;109187;1232;97914;-91
2023/06/10 14:46:46;;;;;;;13.40;5.60;;;;;;;22.13;60.52;98961.01;109133;1244;97920;-91
2023/06/10 14:49:13;;;;;;;13.30;5.90;;;;;;;22.13;60.42;98962.30;109249;1237;98726;-92
2023/06/10 14:51:39;;;;;;;12.60;5.40;;;;;;;22.10;60.40;98957.96;109295;1232;97942;-92
2023/06/10 14:54:07;;;;;;;13.60;5.80;;;;;;;22.10;60.61;98955.34;109166;1244;97894;-92
2023/06/10 14:56:34;;;;;;;17.30;5.70;;;;;;;22.10;60.70;98955.38;108756;1232;97920;-91
2023/06/10 14:59:01;;;;;;;11.50;5.40;;;;;;;22.16;60.55;98955.08;109048;1232;97907;-92
2023/06/10 15:01:28;;;;;;;9.70;4.80;;;;;;;22.15;60.49;98960.61;109100;1232;97945;-91
2023/06/10 15:03:54;;;;;;;10.70;5.40;;;;;;;22.16;60.55;98962.46;108708;1245;97897;-91
2023/06/10 15:06:22;;;;;;;10.70;5.20;;;;;;;22.12;60.37;98967.95;108970;1236;97949;-91
2023/06/10 15:08:49;;;;;;;10.00;5.10;;;;;;;22.00;60.42;98968.59;108810;1241;97968;-91
2023/06/10 15:11:17;;;;;;;12.20;4.90;;;;;;;21.93;60.41;98977.13;109109;1232;98931;-92
2023/06/10 15:13:43;;;;;;;11.40;4.90;;;;;;;21.83;60.41;98982.90;108974;1244;98014;-92
2023/06/10 15:16:10;;;;;;;34.00;27.00;;;;;;;21.66;60.37;98979.91;109012;1235;97930;-91
2023/06/10 15:18:38;;;;;;;16.00;8.50;;;;;;;21.54;60.42;98976.73;109001;1245;99259;-92
2023/06/10 15:21:05;;;;;;;9.70;4.90;;;;;;;21.51;60.50;98977.33;108999;1237;98001;-92
2023/06/10 15:23:32;;;;;;;10.90;5.50;;;;;;;21.45;60.59;98973.53;109281;1235;98854;-92
2023/06/10 15:25:58;;;;;;;9.90;4.80;;;;;;;21.38;60.35;98980.09;109239;1232;97905;-92
2023/06/10 15:28:25;;;;;;;11.80;5.30;;;;;;;21.25;60.45;98980.02;109101;1232;97949;-92
2023/06/10 15:30:55;;;;;;;10.70;4.70;;;;;;;21.12;60.48;98979.39;109150;1237;111498;-92
2023/06/10 15:33:22;;;;;;;7.90;4.40;;;;;;;21.04;60.71;98987.90;109091;1232;97819;-92
2023/06/10 15:35:49;;;;;;;8.20;4.70;;;;;;;20.94;60.41;98989.31;109063;1237;98028;-90
2023/06/10 15:38:16;;;;;;;10.00;5.00;;;;;;;20.84;60.70;98990.29;109325;1238;97943;-91
2023/06/10 15:40:43;;;;;;;8.60;4.70;;;;;;;20.73;60.54;98989.16;109525;1237;97957;-91
2023/06/10 15:43:10;;;;;;;6.70;4.30;;;;;;;20.65;60.70;98990.83;109578;1235;97997;-92
2023/06/10 15:45:37;;;;;;;10.50;4.60;;;;;;;20.57;60.65;98989.48;109388;1239;97931;-92
2023/06/10 15:48:04;;;;;;;12.00;5.50;;;;;;;20.51;60.79;98992.39;109433;1237;98570;-91
2023/06/10 15:50:31;;;;;;;11.00;5.00;;;;;;;20.50;60.87;98998.39;109642;1235;97889;-92
2023/06/10 15:52:59;;;;;;;12.30;5.30;;;;;;;20.48;60.70;98999.88;109554;1241;97909;-93
2023/06/10 15:55:26;;;;;;;12.00;5.70;;;;;;;20.46;60.78;99000.91;109439;1232;97911;-92
2023/06/10 15:58:00;;;;;;;11.90;5.40;;;;;;;20.42;60.87;99002.98;109196;1232;107661;-92
2023/06/10 16:00:28;;;;;;;11.60;5.40;;;;;;;20.37;60.81;98998.86;109757;1235;97866;-92
2023/06/10 16:02:55;;;;;;;12.30;6.00;;;;;;;20.34;60.84;98996.61;109500;1233;98333;-92
2023/06/10 16:05:22;;;;;;;11.30;5.30;;;;;;;20.33;60.99;99002.33;109336;1232;97069;-92
2023/06/10 16:07:50;;;;;;;12.50;5.50;;;;;;;20.27;60.86;99004.67;109415;1247;98003;-92
2023/06/10 16:10:17;;;;;;;12.90;5.60;;;;;;;20.22;60.93;99010.67;109691;1232;98009;-91
2023/06/10 16:12:43;;;;;;;17.60;9.50;;;;;;;20.16;60.89;99009.00;109661;1232;98867;-92
2023/06/10 16:15:11;;;;;;;9.90;5.20;;;;;;;20.09;61.11;99006.72;109586;1232;98026;-93
2023/06/10 16:17:39;;;;;;;10.20;4.90;;;;;;;20.04;61.16;99010.44;109782;1237;97713;-93
2023/06/10 16:20:07;;;;;;;11.90;5.60;;;;;;;20.01;61.22;99011.81;109817;1232;97685;-93
2023/06/10 16:22:35;;;;;;;15.40;6.50;;;;;;;20.01;61.35;99017.38;109909;1231;106915;-94
2023/06/10 16:25:01;;;;;;;11.10;5.60;;;;;;;19.96;61.41;99025.95;109705;1232;98019;-92
2023/06/10 16:27:28;;;;;;;15.50;7.20;;;;;;;19.89;61.32;99029.96;109992;1237;97905;-92
2023/06/10 16:29:55;;;;;;;19.10;8.90;;;;;;;19.87;61.42;99036.35;109282;1237;98000;-92
2023/06/10 16:32:23;;;;;;;16.70;6.90;;;;;;;19.77;61.58;99042.85;109376;1231;97945;-95
2023/06/10 16:34:50;;;;;;;15.20;6.80;;;;;;;19.64;61.53;99050.73;110365;1232;97843;-93
2023/06/10 16:37:16;;;;;;;13.10;6.30;;;;;;;19.56;61.64;99050.61;110319;1232;97855;-96
2023/06/10 16:39:43;;;;;;;14.70;6.60;;;;;;;19.49;61.73;99059.59;110624;1232;96579;-94
2023/06/10 16:42:11;;;;;;;16.30;7.60;;;;;;;19.36;62.13;99052.38;110524;1237;97837;-93
2023/06/10 16:44:39;;;;;;;19.40;9.50;;;;;;;19.26;62.14;99056.84;110381;1232;106964;-91
2023/06/10 16:47:08;;;;;;;24.40;15.20;;;;;;;19.24;61.98;99059.95;110014;1232;97945;-92
2023/06/10 16:49:36;;;;;;;15.20;7.30;;;;;;;19.23;61.92;99061.48;110459;1232;97914;-93
2023/06/10 16:52:05;;;;;;;16.80;6.70;;;;;;;19.22;62.07;99064.84;110251;1240;111244;-92
2023/06/10 16:57:27;;;;;;;14.00;6.30;;;;;;;19.12;62.26;99062.86;111618;1231;106165;-93
2023/06/10 17:06:21;;;;;;;11.40;6.00;;;;;;;19.10;62.30;99065.85;111540;1231;110502;-93
